createdAt,value
2023-05-07T00:00:44.437Z,86
2023-05-07T00:01:51.549Z,86
2023-05-07T00:02:58.849Z,86
2023-05-07T00:04:05.440Z,86
2023-05-07T00:05:12.562Z,86
2023-05-07T00:06:19.502Z,86
2023-05-07T00:07:26.625Z,86
2023-05-07T00:09:40.248Z,86
2023-05-07T00:10:47.514Z,86
2023-05-07T00:11:54.535Z,86
2023-05-07T00:13:01.633Z,86
2023-05-07T00:14:08.708Z,86
2023-05-07T00:15:15.282Z,86
2023-05-07T00:16:22.533Z,86
2023-05-07T00:17:29.628Z,86
2023-05-07T00:18:36.652Z,86
2023-05-07T00:19:43.681Z,86
2023-05-07T00:20:50.313Z,86
2023-05-07T00:21:57.494Z,86
2023-05-07T00:23:04.538Z,86
2023-05-07T00:24:11.630Z,86
2023-05-07T00:25:18.209Z,86
2023-05-07T00:27:32.528Z,86
2023-05-07T00:28:39.552Z,86
2023-05-07T00:29:46.663Z,86
2023-05-07T00:30:53.174Z,86
2023-05-07T00:32:00.369Z,86
2023-05-07T00:33:07.493Z,86
2023-05-07T00:34:14.530Z,86
2023-05-07T00:35:21.615Z,86
2023-05-07T00:36:28.760Z,86
2023-05-07T00:37:35.380Z,86
2023-05-07T00:38:42.465Z,86
2023-05-07T00:39:49.540Z,86
2023-05-07T00:40:56.651Z,86
2023-05-07T00:42:03.206Z,86
2023-05-07T00:43:10.306Z,86
2023-05-07T00:44:17.443Z,86
2023-05-07T00:45:24.552Z,86
2023-05-07T00:46:31.707Z,86
2023-05-07T00:47:38.258Z,87
2023-05-07T00:48:45.375Z,86
2023-05-07T00:50:59.545Z,86
2023-05-07T00:52:06.684Z,86
2023-05-07T00:53:13.303Z,86
2023-05-07T00:54:20.314Z,86
2023-05-07T00:55:27.442Z,87
2023-05-07T00:56:34.597Z,87
2023-05-07T00:57:41.648Z,87
2023-05-07T00:58:48.305Z,87
2023-05-07T00:59:55.363Z,87
2023-05-07T01:01:02.553Z,87
2023-05-07T01:02:11.278Z,87
2023-05-07T01:03:16.705Z,87
2023-05-07T01:04:23.445Z,87
2023-05-07T01:05:30.370Z,87
2023-05-07T01:06:37.472Z,87
2023-05-07T01:07:44.664Z,87
2023-05-07T01:08:51.662Z,87
2023-05-07T01:09:58.309Z,87
2023-05-07T01:11:05.404Z,87
2023-05-07T01:12:12.434Z,87
2023-05-07T01:13:19.670Z,87
2023-05-07T01:14:26.726Z,87
2023-05-07T01:15:33.287Z,87
2023-05-07T01:16:40.422Z,87
2023-05-07T01:17:47.490Z,87
2023-05-07T01:18:54.623Z,87
2023-05-07T01:20:01.775Z,87
2023-05-07T01:21:08.288Z,87
2023-05-07T01:22:15.401Z,87
2023-05-07T01:23:22.466Z,87
2023-05-07T01:24:29.618Z,87
2023-05-07T01:25:36.702Z,87
2023-05-07T01:26:43.261Z,87
2023-05-07T01:27:50.397Z,87
2023-05-07T01:28:57.551Z,87
2023-05-07T01:30:04.624Z,87
2023-05-07T01:32:18.301Z,87
2023-05-07T01:33:25.399Z,87
2023-05-07T01:34:32.525Z,87
2023-05-07T01:35:39.649Z,87
2023-05-07T01:36:46.733Z,87
2023-05-07T01:37:53.267Z,87
2023-05-07T01:39:01.820Z,87
2023-05-07T01:40:07.502Z,88
2023-05-07T01:41:14.641Z,88
2023-05-07T01:42:21.176Z,88
2023-05-07T01:43:28.315Z,88
2023-05-07T01:44:35.446Z,88
2023-05-07T01:45:42.531Z,88
2023-05-07T01:46:49.734Z,88
2023-05-07T01:47:56.322Z,88
2023-05-07T01:49:03.296Z,88
2023-05-07T01:50:10.546Z,88
2023-05-07T01:51:17.550Z,88
2023-05-07T01:52:24.643Z,88
2023-05-07T01:53:31.233Z,88
2023-05-07T01:55:45.428Z,88
2023-05-07T01:56:52.520Z,88
2023-05-07T01:57:59.643Z,88
2023-05-07T01:59:06.262Z,87
2023-05-07T02:00:13.562Z,87
2023-05-07T02:01:20.482Z,87
2023-05-07T02:02:27.708Z,87
2023-05-07T02:03:34.847Z,87
2023-05-07T02:04:41.707Z,87
2023-05-07T02:05:48.391Z,87
2023-05-07T02:06:55.447Z,87
2023-05-07T02:08:02.510Z,87
2023-05-07T02:09:09.671Z,87
2023-05-07T02:10:16.241Z,87
2023-05-07T02:11:23.314Z,87
2023-05-07T02:13:37.635Z,87
2023-05-07T02:14:44.796Z,87
2023-05-07T02:15:51.226Z,87
2023-05-07T02:16:58.383Z,87
2023-05-07T02:18:05.521Z,87
2023-05-07T02:19:12.517Z,87
2023-05-07T02:20:19.683Z,87
2023-05-07T02:21:26.275Z,87
2023-05-07T02:22:33.357Z,87
2023-05-07T02:24:47.564Z,87
2023-05-07T02:25:54.696Z,87
2023-05-07T02:27:01.242Z,87
2023-05-07T02:28:08.379Z,87
2023-05-07T02:29:15.484Z,87
2023-05-07T02:30:22.541Z,87
2023-05-07T02:31:29.722Z,87
2023-05-07T02:32:36.335Z,87
2023-05-07T02:33:43.364Z,87
2023-05-07T02:34:50.447Z,87
2023-05-07T02:35:57.672Z,87
2023-05-07T02:37:04.686Z,87
2023-05-07T02:38:11.248Z,87
2023-05-07T02:39:18.430Z,87
2023-05-07T02:40:25.460Z,87
2023-05-07T02:41:32.611Z,87
2023-05-07T02:42:39.757Z,87
2023-05-07T02:43:46.357Z,87
2023-05-07T02:44:53.354Z,87
2023-05-07T02:46:00.516Z,87
2023-05-07T02:47:07.620Z,87
2023-05-07T02:48:14.718Z,87
2023-05-07T02:49:21.246Z,88
2023-05-07T02:50:28.397Z,87
2023-05-07T02:51:35.634Z,87
2023-05-07T02:52:42.605Z,87
2023-05-07T02:54:56.338Z,88
2023-05-07T02:56:03.426Z,88
2023-05-07T02:57:10.508Z,88
2023-05-07T02:58:17.619Z,88
2023-05-07T02:59:24.167Z,88
2023-05-07T03:00:31.296Z,88
2023-05-07T03:01:38.462Z,88
2023-05-07T03:02:45.696Z,88
2023-05-07T03:03:54.182Z,88
2023-05-07T03:04:59.202Z,88
2023-05-07T03:06:06.339Z,88
2023-05-07T03:07:13.377Z,88
2023-05-07T03:08:20.509Z,88
2023-05-07T03:09:27.674Z,88
2023-05-07T03:10:34.217Z,88
2023-05-07T03:11:41.324Z,88
2023-05-07T03:12:48.481Z,88
2023-05-07T03:13:55.581Z,88
2023-05-07T03:15:02.606Z,88
2023-05-07T03:16:09.767Z,88
2023-05-07T03:17:16.369Z,88
2023-05-07T03:18:23.410Z,88
2023-05-07T03:19:30.510Z,88
2023-05-07T03:20:37.727Z,88
2023-05-07T03:21:44.206Z,88
2023-05-07T03:22:51.316Z,88
2023-05-07T03:23:58.435Z,88
2023-05-07T03:25:05.554Z,88
2023-05-07T03:26:12.613Z,88
2023-05-07T03:27:19.251Z,88
2023-05-07T03:28:26.422Z,88
2023-05-07T03:29:33.457Z,88
2023-05-07T03:30:40.529Z,88
2023-05-07T03:31:47.788Z,88
2023-05-07T03:32:54.249Z,88
2023-05-07T03:34:01.355Z,88
2023-05-07T03:36:15.572Z,88
2023-05-07T03:37:22.683Z,88
2023-05-07T03:38:29.251Z,89
2023-05-07T03:39:36.401Z,89
2023-05-07T03:40:43.429Z,89
2023-05-07T03:41:50.525Z,89
2023-05-07T03:42:57.703Z,89
2023-05-07T03:44:04.256Z,89
2023-05-07T03:45:11.337Z,89
2023-05-07T03:46:18.498Z,89
2023-05-07T03:47:25.607Z,89
2023-05-07T03:48:32.678Z,89
2023-05-07T03:49:39.301Z,89
2023-05-07T03:50:46.377Z,89
2023-05-07T03:51:53.445Z,89
2023-05-07T03:53:00.607Z,89
2023-05-07T03:54:07.683Z,89
2023-05-07T03:55:14.234Z,89
2023-05-07T03:56:21.341Z,89
2023-05-07T03:57:28.497Z,89
2023-05-07T03:58:35.649Z,89
2023-05-07T03:59:42.737Z,89
2023-05-07T04:00:50.124Z,89
2023-05-07T04:01:56.430Z,89
2023-05-07T04:03:03.597Z,89
2023-05-07T04:04:10.609Z,89
2023-05-07T04:05:17.664Z,89
2023-05-07T04:06:24.256Z,89
2023-05-07T04:07:31.396Z,89
2023-05-07T04:08:38.530Z,89
2023-05-07T04:09:45.614Z,89
2023-05-07T04:10:52.688Z,89
2023-05-07T04:11:59.333Z,89
2023-05-07T04:13:06.489Z,89
2023-05-07T04:14:13.535Z,89
2023-05-07T04:15:20.597Z,89
2023-05-07T04:17:34.307Z,89
2023-05-07T04:18:41.383Z,89
2023-05-07T04:19:48.525Z,90
2023-05-07T04:20:55.620Z,89
2023-05-07T04:22:02.717Z,89
2023-05-07T04:23:09.334Z,90
2023-05-07T04:24:16.467Z,89
2023-05-07T04:25:23.550Z,90
2023-05-07T04:26:30.627Z,90
2023-05-07T04:27:37.728Z,89
2023-05-07T04:28:44.298Z,90
2023-05-07T04:29:51.432Z,90
2023-05-07T04:30:58.531Z,90
2023-05-07T04:32:05.696Z,90
2023-05-07T04:33:12.244Z,90
2023-05-07T04:34:19.330Z,90
2023-05-07T04:35:26.488Z,90
2023-05-07T04:36:33.530Z,90
2023-05-07T04:37:40.605Z,90
2023-05-07T04:38:47.296Z,90
2023-05-07T04:39:54.377Z,90
2023-05-07T04:41:01.409Z,90
2023-05-07T04:42:11.563Z,90
2023-05-07T04:43:15.662Z,90
2023-05-07T04:44:22.220Z,90
2023-05-07T04:45:29.342Z,90
2023-05-07T04:46:36.541Z,90
2023-05-07T04:47:43.589Z,90
2023-05-07T04:48:50.711Z,90
2023-05-07T04:49:57.776Z,90
2023-05-07T04:51:04.355Z,90
2023-05-07T04:52:11.499Z,90
2023-05-07T04:53:18.564Z,90
2023-05-07T04:54:25.156Z,90
2023-05-07T04:55:32.230Z,90
2023-05-07T04:56:39.350Z,90
2023-05-07T04:58:53.670Z,90
2023-05-07T05:00:00.658Z,90
2023-05-07T05:01:07.263Z,90
2023-05-07T05:02:14.404Z,90
2023-05-07T05:03:21.593Z,90
2023-05-07T05:04:28.612Z,90
2023-05-07T05:05:35.662Z,90
2023-05-07T05:06:42.244Z,91
2023-05-07T05:07:49.379Z,91
2023-05-07T05:08:58.523Z,91
2023-05-07T05:10:04.384Z,91
2023-05-07T05:11:10.661Z,91
2023-05-07T05:12:17.302Z,91
2023-05-07T05:13:24.377Z,91
2023-05-07T05:14:31.475Z,91
2023-05-07T05:15:38.640Z,91
2023-05-07T05:16:45.707Z,91
2023-05-07T05:17:52.361Z,91
2023-05-07T05:18:59.925Z,91
2023-05-07T05:20:06.500Z,91
2023-05-07T05:21:13.607Z,91
2023-05-07T05:22:21.848Z,91
2023-05-07T05:23:27.293Z,91
2023-05-07T05:24:34.438Z,91
2023-05-07T05:25:41.509Z,91
2023-05-07T05:26:48.636Z,91
2023-05-07T05:29:02.306Z,91
2023-05-07T05:30:09.601Z,91
2023-05-07T05:31:16.575Z,91
2023-05-07T05:32:23.695Z,91
2023-05-07T05:33:30.217Z,91
2023-05-07T05:34:37.373Z,91
2023-05-07T05:35:44.389Z,91
2023-05-07T05:36:51.501Z,91
2023-05-07T05:37:58.630Z,91
2023-05-07T05:40:12.558Z,91
2023-05-07T05:41:19.423Z,91
2023-05-07T05:42:26.529Z,91
2023-05-07T05:43:33.644Z,91
2023-05-07T05:44:40.215Z,91
2023-05-07T05:45:47.467Z,91
2023-05-07T05:46:54.510Z,91
2023-05-07T05:48:01.572Z,91
2023-05-07T05:49:08.668Z,92
2023-05-07T05:50:15.226Z,92
2023-05-07T05:51:22.391Z,92
2023-05-07T05:52:29.406Z,92
2023-05-07T05:53:36.553Z,92
2023-05-07T05:54:43.640Z,92
2023-05-07T05:55:50.256Z,92
2023-05-07T05:56:57.413Z,92
2023-05-07T05:58:04.422Z,92
2023-05-07T05:59:11.620Z,92
2023-05-07T06:00:18.708Z,92
2023-05-07T06:01:25.250Z,92
2023-05-07T06:02:32.461Z,92
2023-05-07T06:03:39.489Z,92
2023-05-07T06:04:46.654Z,92
2023-05-07T06:05:53.112Z,91
2023-05-07T06:07:00.272Z,91
2023-05-07T06:08:07.420Z,91
2023-05-07T06:09:14.419Z,91
2023-05-07T06:10:21.544Z,91
2023-05-07T06:11:28.696Z,91
2023-05-07T06:12:35.340Z,92
2023-05-07T06:13:42.398Z,91
2023-05-07T06:14:49.471Z,91
2023-05-07T06:15:56.590Z,91
2023-05-07T06:17:03.655Z,91
2023-05-07T06:18:10.300Z,91
2023-05-07T06:19:17.384Z,91
2023-05-07T06:21:31.533Z,91
2023-05-07T06:22:38.708Z,91
2023-05-07T06:23:45.250Z,91
2023-05-07T06:24:52.405Z,91
2023-05-07T06:25:59.492Z,91
2023-05-07T06:27:06.592Z,91
2023-05-07T06:28:13.144Z,91
2023-05-07T06:29:20.302Z,91
2023-05-07T06:30:27.400Z,91
2023-05-07T06:31:34.526Z,91
2023-05-07T06:32:41.830Z,91
2023-05-07T06:33:48.712Z,91
2023-05-07T06:34:55.298Z,91
2023-05-07T06:36:02.355Z,91
2023-05-07T06:37:09.506Z,91
2023-05-07T06:38:16.630Z,91
2023-05-07T06:39:23.808Z,92
2023-05-07T06:40:30.287Z,92
2023-05-07T06:41:37.524Z,92
2023-05-07T06:42:44.473Z,93
2023-05-07T06:43:51.587Z,93
2023-05-07T06:44:58.231Z,93
2023-05-07T06:46:05.345Z,93
2023-05-07T06:47:15.170Z,93
2023-05-07T06:48:19.530Z,93
2023-05-07T06:49:26.653Z,93
2023-05-07T06:50:33.192Z,93
2023-05-07T06:51:40.295Z,93
2023-05-07T06:52:47.436Z,93
2023-05-07T06:53:54.528Z,93
2023-05-07T06:55:01.111Z,93
2023-05-07T06:58:22.397Z,92
2023-05-07T06:59:29.544Z,92
2023-05-07T07:00:36.646Z,92
2023-05-07T07:02:50.368Z,91
2023-05-07T07:03:57.431Z,91
2023-05-07T07:05:04.711Z,91
2023-05-07T07:06:11.594Z,90
2023-05-07T07:07:18.254Z,90
2023-05-07T07:08:25.310Z,89
2023-05-07T07:09:32.555Z,88
2023-05-07T07:10:39.504Z,87
2023-05-07T07:11:46.642Z,86
2023-05-07T07:12:53.265Z,86
2023-05-07T07:14:00.311Z,85
2023-05-07T07:15:07.474Z,85
2023-05-07T07:16:14.616Z,85
2023-05-07T07:17:21.124Z,85
2023-05-07T07:18:28.267Z,85
2023-05-07T07:19:35.318Z,85
2023-05-07T07:20:42.438Z,84
2023-05-07T07:22:56.631Z,85
2023-05-07T07:24:03.214Z,85
2023-05-07T07:25:10.796Z,85
2023-05-07T07:26:17.454Z,85
2023-05-07T07:27:24.517Z,84
2023-05-07T07:28:31.625Z,84
2023-05-07T07:29:38.289Z,84
2023-05-07T07:30:45.337Z,83
2023-05-07T07:31:52.477Z,83
2023-05-07T07:32:59.669Z,83
2023-05-07T07:34:06.679Z,84
2023-05-07T07:35:13.222Z,83
2023-05-07T07:36:21.027Z,83
2023-05-07T07:37:27.476Z,83
2023-05-07T07:38:34.582Z,82
2023-05-07T07:39:41.705Z,82
2023-05-07T07:40:48.286Z,82
2023-05-07T07:41:55.330Z,81
2023-05-07T07:44:09.042Z,81
2023-05-07T07:45:16.681Z,80
2023-05-07T07:46:23.269Z,79
2023-05-07T07:47:30.432Z,79
2023-05-07T07:48:37.478Z,79
2023-05-07T07:49:44.642Z,79
2023-05-07T07:50:51.684Z,79
2023-05-07T07:51:58.281Z,79
2023-05-07T07:53:05.530Z,79
2023-05-07T07:54:12.464Z,79
2023-05-07T07:55:19.606Z,79
2023-05-07T07:56:26.161Z,79
2023-05-07T07:57:33.284Z,78
2023-05-07T07:58:40.348Z,78
2023-05-07T07:59:47.495Z,78
2023-05-07T08:02:01.742Z,77
2023-05-07T08:03:08.655Z,77
2023-05-07T08:04:15.490Z,77
2023-05-07T08:05:22.466Z,77
2023-05-07T08:06:29.619Z,77
2023-05-07T08:07:36.152Z,77
2023-05-07T08:08:43.290Z,77
2023-05-07T08:09:50.370Z,76
2023-05-07T08:12:04.628Z,75
2023-05-07T08:13:11.252Z,75
2023-05-07T08:14:18.377Z,75
2023-05-07T08:15:25.434Z,75
2023-05-07T08:16:32.529Z,75
2023-05-07T08:17:39.649Z,75
2023-05-07T08:18:46.325Z,75
2023-05-07T08:19:53.372Z,74
2023-05-07T08:21:00.530Z,74
2023-05-07T08:22:07.535Z,74
2023-05-07T08:23:14.645Z,74
2023-05-07T08:25:28.344Z,74
2023-05-07T08:26:35.436Z,74
2023-05-07T08:27:42.515Z,74
2023-05-07T08:28:49.656Z,74
2023-05-07T08:29:56.371Z,74
2023-05-07T08:31:03.363Z,74
2023-05-07T08:32:11.464Z,73
2023-05-07T08:33:17.535Z,73
2023-05-07T08:34:24.657Z,73
2023-05-07T08:35:31.205Z,73
2023-05-07T08:36:38.370Z,73
2023-05-07T08:37:45.449Z,73
2023-05-07T08:38:52.553Z,73
2023-05-07T08:39:59.661Z,73
2023-05-07T08:41:06.246Z,73
2023-05-07T08:42:13.324Z,73
2023-05-07T08:43:20.535Z,73
2023-05-07T08:44:27.628Z,73
2023-05-07T08:45:34.118Z,73
2023-05-07T08:46:41.277Z,73
2023-05-07T08:47:48.391Z,73
2023-05-07T08:48:55.461Z,72
2023-05-07T08:50:02.624Z,72
2023-05-07T08:51:09.159Z,72
2023-05-07T08:52:16.306Z,72
2023-05-07T08:53:23.376Z,72
2023-05-07T08:54:30.510Z,72
2023-05-07T08:55:37.541Z,72
2023-05-07T08:56:44.225Z,72
2023-05-07T08:57:51.309Z,72
2023-05-07T08:58:58.372Z,72
2023-05-07T09:00:05.472Z,72
2023-05-07T09:01:12.562Z,72
2023-05-07T09:02:19.259Z,72
2023-05-07T09:03:26.309Z,72
2023-05-07T09:06:47.680Z,72
2023-05-07T09:07:54.766Z,72
2023-05-07T09:09:01.249Z,72
2023-05-07T09:10:08.527Z,72
2023-05-07T09:11:15.495Z,72
2023-05-07T09:12:22.574Z,72
2023-05-07T09:13:29.218Z,72
2023-05-07T09:14:36.290Z,73
2023-05-07T09:15:43.402Z,73
2023-05-07T09:16:49.985Z,73
2023-05-07T09:17:57.720Z,72
2023-05-07T09:19:04.194Z,72
2023-05-07T09:20:11.526Z,72
2023-05-07T09:21:18.380Z,72
2023-05-07T09:22:25.487Z,72
2023-05-07T09:23:32.641Z,72
2023-05-07T09:24:39.261Z,72
2023-05-07T09:25:46.329Z,72
2023-05-07T09:26:53.381Z,72
2023-05-07T09:28:00.484Z,72
2023-05-07T09:29:07.632Z,72
2023-05-07T09:30:14.229Z,72
2023-05-07T09:31:21.935Z,72
2023-05-07T09:32:28.453Z,71
2023-05-07T09:33:35.530Z,71
2023-05-07T09:34:42.118Z,71
2023-05-07T09:35:49.231Z,71
2023-05-07T09:36:56.305Z,71
2023-05-07T09:38:04.591Z,71
2023-05-07T09:39:10.010Z,71
2023-05-07T09:40:17.671Z,71
2023-05-07T09:41:24.203Z,71
2023-05-07T09:42:31.316Z,71
2023-05-07T09:43:38.437Z,71
2023-05-07T09:44:45.565Z,71
2023-05-07T09:45:52.780Z,71
2023-05-07T09:48:06.516Z,71
2023-05-07T09:49:13.433Z,71
2023-05-07T09:50:20.523Z,71
2023-05-07T09:51:27.649Z,71
2023-05-07T09:53:41.323Z,71
2023-05-07T09:54:48.451Z,71
2023-05-07T09:55:55.546Z,71
2023-05-07T09:57:02.120Z,71
2023-05-07T09:58:09.353Z,72
2023-05-07T09:59:16.354Z,71
2023-05-07T10:00:23.537Z,71
2023-05-07T10:01:30.106Z,71
2023-05-07T10:02:37.715Z,71
2023-05-07T10:03:44.321Z,70
2023-05-07T10:04:51.317Z,70
2023-05-07T10:05:57.957Z,70
2023-05-07T10:07:05.564Z,70
2023-05-07T10:09:19.278Z,70
2023-05-07T10:10:26.395Z,70
2023-05-07T10:11:33.445Z,69
2023-05-07T10:12:40.657Z,69
2023-05-07T10:13:47.153Z,69
2023-05-07T10:14:54.246Z,69
2023-05-07T10:16:01.359Z,69
2023-05-07T10:17:08.518Z,69
2023-05-07T10:18:15.777Z,68
2023-05-07T10:19:22.305Z,68
2023-05-07T10:20:29.315Z,68
2023-05-07T10:21:36.397Z,69
2023-05-07T10:22:43.459Z,69
2023-05-07T10:23:50.075Z,69
2023-05-07T10:24:57.164Z,68
2023-05-07T10:26:04.292Z,68
2023-05-07T10:29:25.609Z,67
2023-05-07T10:30:33.099Z,67
2023-05-07T10:31:39.424Z,67
2023-05-07T10:32:46.493Z,68
2023-05-07T10:33:53.482Z,69
2023-05-07T10:35:00.563Z,69
2023-05-07T10:36:07.183Z,70
2023-05-07T10:37:14.276Z,70
2023-05-07T10:38:21.481Z,70
2023-05-07T10:39:28.519Z,71
2023-05-07T10:40:35.657Z,71
2023-05-07T10:41:42.187Z,71
2023-05-07T10:42:49.312Z,71
2023-05-07T10:43:56.404Z,71
2023-05-07T10:45:03.478Z,71
2023-05-07T10:46:10.160Z,71
2023-05-07T10:47:17.248Z,71
2023-05-07T10:48:30.239Z,71
2023-05-07T10:49:31.400Z,71
2023-05-07T10:50:38.587Z,71
2023-05-07T10:51:45.629Z,71
2023-05-07T10:52:52.190Z,71
2023-05-07T10:53:59.362Z,71
2023-05-07T10:55:05.904Z,71
2023-05-07T10:56:13.520Z,72
2023-05-07T10:57:20.125Z,72
2023-05-07T10:58:31.444Z,72
2023-05-07T10:59:34.375Z,72
2023-05-07T11:00:41.468Z,72
2023-05-07T11:01:48.529Z,72
2023-05-07T11:02:55.178Z,72
2023-05-07T11:04:02.219Z,72
2023-05-07T11:05:09.455Z,72
2023-05-07T11:06:16.439Z,72
2023-05-07T11:07:23.513Z,72
2023-05-07T11:08:30.140Z,72
2023-05-07T11:10:44.300Z,72
2023-05-07T11:14:05.140Z,71
2023-05-07T11:15:12.562Z,72
2023-05-07T11:16:19.363Z,72
2023-05-07T11:17:25.946Z,72
2023-05-07T11:18:33.660Z,71
2023-05-07T11:19:40.159Z,72
2023-05-07T11:23:00.920Z,71
2023-05-07T11:24:08.608Z,71
2023-05-07T11:25:15.164Z,71
2023-05-07T11:26:22.233Z,71
2023-05-07T11:27:28.856Z,71
2023-05-07T11:28:36.479Z,71
2023-05-07T11:29:43.621Z,71
2023-05-07T11:30:50.178Z,71
2023-05-07T11:31:57.321Z,71
2023-05-07T11:33:04.406Z,72
2023-05-07T11:34:11.436Z,72
2023-05-07T11:35:18.585Z,72
2023-05-07T11:36:25.172Z,72
2023-05-07T11:37:32.242Z,72
2023-05-07T11:38:39.392Z,72
2023-05-07T11:39:46.485Z,72
2023-05-07T11:40:53.572Z,72
2023-05-07T11:42:00.230Z,72
2023-05-07T11:43:07.344Z,72
2023-05-07T11:44:14.440Z,72
2023-05-07T11:45:21.458Z,72
2023-05-07T11:46:28.091Z,72
2023-05-07T11:47:35.211Z,71
2023-05-07T11:48:42.263Z,71
2023-05-07T11:49:49.429Z,71
2023-05-07T11:50:56.499Z,71
2023-05-07T11:52:06.053Z,71
2023-05-07T11:53:10.191Z,70
2023-05-07T11:54:17.357Z,70
2023-05-07T11:55:24.399Z,70
2023-05-07T11:56:31.507Z,70
2023-05-07T11:57:38.036Z,70
2023-05-07T11:58:45.216Z,70
2023-05-07T11:59:52.309Z,70
2023-05-07T12:00:59.405Z,70
2023-05-07T12:02:06.562Z,70
2023-05-07T12:03:13.113Z,70
2023-05-07T12:04:20.374Z,70
2023-05-07T12:05:27.330Z,70
2023-05-07T12:06:34.397Z,70
2023-05-07T12:07:41.482Z,70
2023-05-07T12:08:48.605Z,70
2023-05-07T12:09:55.267Z,70
2023-05-07T12:11:02.268Z,69
2023-05-07T12:12:11.552Z,69
2023-05-07T12:13:16.600Z,69
2023-05-07T12:14:23.102Z,69
2023-05-07T12:16:37.324Z,69
2023-05-07T12:17:44.444Z,69
2023-05-07T12:18:51.500Z,68
2023-05-07T12:19:58.121Z,69
2023-05-07T12:21:05.387Z,69
2023-05-07T12:22:12.320Z,68
2023-05-07T12:23:19.453Z,69
2023-05-07T12:24:26.565Z,69
2023-05-07T12:25:33.113Z,69
2023-05-07T12:26:40.284Z,69
2023-05-07T12:27:47.332Z,69
2023-05-07T12:28:54.426Z,68
2023-05-07T12:30:01.573Z,68
2023-05-07T12:31:08.204Z,68
2023-05-07T12:32:15.255Z,68
2023-05-07T12:33:22.313Z,68
2023-05-07T12:34:29.494Z,68
2023-05-07T12:35:36.529Z,68
2023-05-07T12:36:43.135Z,68
2023-05-07T12:37:50.288Z,69
2023-05-07T12:38:57.385Z,69
2023-05-07T12:40:04.465Z,69
2023-05-07T12:41:14.215Z,69
2023-05-07T12:42:18.187Z,69
2023-05-07T12:43:25.257Z,69
2023-05-07T12:44:32.362Z,69
2023-05-07T12:45:39.470Z,69
2023-05-07T12:46:46.629Z,69
2023-05-07T12:47:53.148Z,69
2023-05-07T12:50:06.880Z,69
2023-05-07T12:51:14.471Z,69
2023-05-07T12:52:21.043Z,69
2023-05-07T12:53:28.196Z,69
2023-05-07T12:54:35.327Z,69
2023-05-07T12:55:42.333Z,69
2023-05-07T12:56:49.486Z,69
2023-05-07T12:57:56.077Z,69
2023-05-07T12:59:03.177Z,69
2023-05-07T13:00:10.307Z,69
2023-05-07T13:01:17.415Z,69
2023-05-07T13:02:24.564Z,69
2023-05-07T13:03:31.161Z,69
2023-05-07T13:04:38.220Z,69
2023-05-07T13:05:45.312Z,69
2023-05-07T13:06:52.359Z,69
2023-05-07T13:07:59.512Z,68
2023-05-07T13:09:06.065Z,68
2023-05-07T13:10:13.200Z,68
2023-05-07T13:11:20.287Z,68
2023-05-07T13:12:27.368Z,68
2023-05-07T13:13:34.612Z,68
2023-05-07T13:14:41.074Z,68
2023-05-07T13:15:48.242Z,68
2023-05-07T13:16:55.333Z,68
2023-05-07T13:18:02.424Z,68
2023-05-07T13:20:16.127Z,68
2023-05-07T13:21:23.223Z,68
2023-05-07T13:22:30.261Z,68
2023-05-07T13:23:37.373Z,68
2023-05-07T13:24:44.502Z,68
2023-05-07T13:25:51.177Z,68
2023-05-07T13:26:58.213Z,68
2023-05-07T13:28:10.637Z,68
2023-05-07T13:29:12.375Z,68
2023-05-07T13:30:19.573Z,68
2023-05-07T13:31:25.611Z,68
2023-05-07T13:32:33.219Z,68
2023-05-07T13:33:40.278Z,68
2023-05-07T13:34:47.491Z,68
2023-05-07T13:35:54.525Z,68
2023-05-07T13:37:01.155Z,68
2023-05-07T13:38:08.197Z,68
2023-05-07T13:39:15.352Z,68
2023-05-07T13:40:22.408Z,68
2023-05-07T13:41:29.598Z,68
2023-05-07T13:42:36.188Z,68
2023-05-07T13:43:43.253Z,68
2023-05-07T13:44:50.394Z,68
2023-05-07T13:45:57.513Z,68
2023-05-07T13:47:04.510Z,68
2023-05-07T13:48:11.279Z,68
2023-05-07T13:49:18.224Z,68
2023-05-07T13:50:25.331Z,68
2023-05-07T13:51:32.479Z,68
2023-05-07T13:52:39.033Z,68
2023-05-07T13:53:46.145Z,68
2023-05-07T13:54:53.219Z,68
2023-05-07T13:56:00.370Z,68
2023-05-07T13:57:07.472Z,68
2023-05-07T13:58:14.019Z,68
2023-05-07T13:59:21.104Z,68
2023-05-07T14:00:28.348Z,68
2023-05-07T14:01:35.384Z,68
2023-05-07T14:02:42.515Z,68
2023-05-07T14:03:49.082Z,68
2023-05-07T14:04:56.236Z,68
2023-05-07T14:06:03.292Z,68
2023-05-07T14:07:10.326Z,67
2023-05-07T14:08:17.472Z,67
2023-05-07T14:09:24.080Z,67
2023-05-07T14:10:31.128Z,67
2023-05-07T14:11:38.285Z,67
2023-05-07T14:13:52.438Z,67
2023-05-07T14:14:59.066Z,67
2023-05-07T14:16:06.195Z,68
2023-05-07T14:18:20.365Z,68
2023-05-07T14:19:27.514Z,68
2023-05-07T14:20:34.048Z,68
2023-05-07T14:21:41.160Z,68
2023-05-07T14:23:55.394Z,68
2023-05-07T14:26:09.121Z,69
2023-05-07T14:27:16.228Z,69
2023-05-07T14:28:23.295Z,70
2023-05-07T14:29:30.382Z,70
2023-05-07T14:30:37.515Z,71
2023-05-07T14:31:44.049Z,70
2023-05-07T14:32:51.245Z,70
2023-05-07T14:33:58.289Z,70
2023-05-07T14:35:05.438Z,71
2023-05-07T14:36:12.494Z,72
2023-05-07T14:37:19.101Z,72
2023-05-07T14:38:26.237Z,73
2023-05-07T14:39:33.273Z,73
2023-05-07T14:40:40.439Z,73
2023-05-07T14:41:47.521Z,73
2023-05-07T14:42:54.067Z,73
2023-05-07T14:44:01.252Z,73
2023-05-07T14:45:08.295Z,74
2023-05-07T14:46:15.449Z,74
2023-05-07T14:47:22.518Z,74
2023-05-07T14:48:29.099Z,73
2023-05-07T14:49:36.219Z,73
2023-05-07T14:50:43.385Z,73
2023-05-07T14:51:50.403Z,73
2023-05-07T14:52:57.016Z,73
2023-05-07T14:55:11.629Z,73
2023-05-07T14:56:18.385Z,73
2023-05-07T14:57:25.430Z,72
2023-05-07T14:58:32.029Z,72
2023-05-07T14:59:39.186Z,72
2023-05-07T15:00:46.228Z,72
2023-05-07T15:01:53.305Z,72
2023-05-07T15:03:00.471Z,72
2023-05-07T15:04:07.106Z,72
2023-05-07T15:05:14.238Z,72
2023-05-07T15:06:21.233Z,72
2023-05-07T15:07:28.363Z,72
2023-05-07T15:08:35.470Z,72
2023-05-07T15:09:42.034Z,72
2023-05-07T15:10:49.187Z,71
2023-05-07T15:11:56.297Z,71
2023-05-07T15:13:03.361Z,71
2023-05-07T15:14:10.431Z,71
2023-05-07T15:15:17.064Z,71
2023-05-07T15:16:24.206Z,71
2023-05-07T15:17:31.293Z,70
2023-05-07T15:18:38.346Z,69
2023-05-07T15:19:45.462Z,69
2023-05-07T15:20:52.012Z,69
2023-05-07T15:21:59.172Z,69
2023-05-07T15:23:06.283Z,70
2023-05-07T15:24:13.367Z,70
2023-05-07T15:25:20.447Z,70
2023-05-07T15:27:34.136Z,70
2023-05-07T15:28:41.267Z,70
2023-05-07T15:29:48.387Z,70
2023-05-07T15:30:56.306Z,70
2023-05-07T15:32:02.168Z,70
2023-05-07T15:33:09.198Z,70
2023-05-07T15:34:16.303Z,70
2023-05-07T15:36:30.502Z,70
2023-05-07T15:37:37.067Z,70
2023-05-07T15:38:44.151Z,70
2023-05-07T15:39:51.269Z,70
2023-05-07T15:40:58.397Z,69
2023-05-07T15:42:05.515Z,69
2023-05-07T15:43:12.061Z,69
2023-05-07T15:44:19.204Z,69
2023-05-07T15:46:33.459Z,70
2023-05-07T15:47:40.536Z,70
2023-05-07T15:48:47.111Z,70
2023-05-07T15:49:54.159Z,70
2023-05-07T15:51:01.258Z,70
2023-05-07T15:52:11.510Z,70
2023-05-07T15:53:15.525Z,70
2023-05-07T15:54:22.073Z,70
2023-05-07T15:55:29.213Z,70
2023-05-07T15:56:36.307Z,70
2023-05-07T15:57:43.395Z,70
2023-05-07T15:58:50.497Z,70
2023-05-07T15:59:57.094Z,70
2023-05-07T16:01:04.295Z,70
2023-05-07T16:02:11.763Z,70
2023-05-07T16:03:18.516Z,69
2023-05-07T16:04:25.008Z,69
2023-05-07T16:05:32.132Z,70
2023-05-07T16:06:39.221Z,70
2023-05-07T16:07:46.332Z,70
2023-05-07T16:08:53.432Z,70
2023-05-07T16:10:00.097Z,70
2023-05-07T16:11:07.164Z,70
2023-05-07T16:12:14.257Z,70
2023-05-07T16:13:21.494Z,70
2023-05-07T16:14:28.458Z,70
2023-05-07T16:15:35.032Z,69
2023-05-07T16:17:49.282Z,70
2023-05-07T16:18:56.327Z,70
2023-05-07T16:20:03.444Z,70
2023-05-07T16:21:10.033Z,70
2023-05-07T16:22:17.162Z,70
2023-05-07T16:23:24.302Z,70
2023-05-07T16:24:31.328Z,70
2023-05-07T16:25:38.465Z,70
2023-05-07T16:26:45.008Z,70
2023-05-07T16:27:52.131Z,70
2023-05-07T16:28:59.266Z,70
2023-05-07T16:31:13.537Z,70
2023-05-07T16:32:20.046Z,70
2023-05-07T16:33:27.136Z,70
2023-05-07T16:34:34.239Z,70
2023-05-07T16:35:41.326Z,70
2023-05-07T16:36:48.452Z,70
2023-05-07T16:37:55.062Z,70
2023-05-07T16:39:02.135Z,69
2023-05-07T16:40:09.255Z,69
2023-05-07T16:41:16.363Z,69
2023-05-07T16:42:23.461Z,69
2023-05-07T16:43:30.064Z,69
2023-05-07T16:44:37.163Z,69
2023-05-07T16:45:44.276Z,69
2023-05-07T16:46:51.334Z,70
2023-05-07T16:47:58.541Z,70